createdAt,value
2018-08-11T00:00:47.254Z,3.42
2018-08-11T00:03:15.398Z,3.37
2018-08-11T00:05:43.675Z,3.30
2018-08-11T00:08:11.811Z,3.40
2018-08-11T00:10:40.064Z,2.98
2018-08-11T00:13:09.295Z,3.08
2018-08-11T00:15:37.638Z,2.80
2018-08-11T00:18:06.529Z,3.35
2018-08-11T00:20:34.663Z,3.15
2018-08-11T00:23:02.850Z,3.10
2018-08-11T00:25:31.059Z,2.98
2018-08-11T00:27:59.185Z,2.90
2018-08-11T00:30:27.334Z,2.72
2018-08-11T00:32:55.626Z,2.60
2018-08-11T00:35:23.805Z,2.40
2018-08-11T00:37:52.420Z,2.72
2018-08-11T00:40:20.987Z,2.30
2018-08-11T00:42:50.243Z,2.77
2018-08-11T00:45:18.910Z,2.30
2018-08-11T00:47:47.186Z,2.45
2018-08-11T00:50:24.876Z,2.35
2018-08-11T00:52:53.408Z,2.60
2018-08-11T00:55:21.699Z,2.20
2018-08-11T00:57:49.998Z,2.22
2018-08-11T01:00:19.159Z,2.75
2018-08-11T01:02:47.650Z,2.22
2018-08-11T01:05:18.001Z,2.60
2018-08-11T01:07:46.572Z,2.52
2018-08-11T01:10:15.474Z,2.50
2018-08-11T01:12:44.431Z,2.30
2018-08-11T01:15:17.795Z,2.10
2018-08-11T01:17:46.710Z,2.08
2018-08-11T01:20:15.496Z,2.05
2018-08-11T01:22:44.504Z,2.22
2018-08-11T01:25:13.394Z,2.22
2018-08-11T01:27:41.745Z,2.10
2018-08-11T01:30:14.053Z,2.42
2018-08-11T01:32:42.216Z,2.25
2018-08-11T01:35:11.081Z,2.00
2018-08-11T01:37:40.093Z,2.00
2018-08-11T01:40:10.391Z,1.85
2018-08-11T01:42:38.983Z,2.08
2018-08-11T01:45:08.320Z,1.67
2018-08-11T01:47:36.804Z,1.90
2018-08-11T01:50:05.559Z,1.82
2018-08-11T01:52:34.062Z,1.80
2018-08-11T01:55:02.336Z,1.72
2018-08-11T01:57:30.544Z,1.82
2018-08-11T01:59:58.847Z,1.70
2018-08-11T02:02:27.123Z,2.25
2018-08-11T02:04:55.384Z,1.65
2018-08-11T02:07:23.655Z,1.52
2018-08-11T02:09:51.948Z,1.57
2018-08-11T02:12:20.387Z,1.85
2018-08-11T02:14:48.493Z,1.60
2018-08-11T02:17:16.795Z,1.80
2018-08-11T02:19:44.987Z,1.70
2018-08-11T02:22:13.185Z,1.45
2018-08-11T02:24:41.474Z,1.40
2018-08-11T02:27:09.786Z,1.50
2018-08-11T02:29:38.007Z,1.45
2018-08-11T02:32:06.503Z,1.60
2018-08-11T02:34:36.141Z,1.50
2018-08-11T02:37:04.647Z,1.60
2018-08-11T02:39:32.787Z,2.10
2018-08-11T02:42:01.249Z,1.87
2018-08-11T02:44:29.399Z,1.65
2018-08-11T02:46:57.752Z,1.67
2018-08-11T02:49:26.102Z,1.72
2018-08-11T02:51:54.435Z,1.67
2018-08-11T02:54:22.624Z,1.62
2018-08-11T02:56:50.754Z,1.80
2018-08-11T02:59:24.660Z,1.40
2018-08-11T03:01:53.804Z,1.82
2018-08-11T03:04:22.391Z,1.47
2018-08-11T03:06:50.952Z,1.55
2018-08-11T03:09:19.837Z,1.40
2018-08-11T03:11:48.077Z,1.40
2018-08-11T03:14:16.463Z,1.90
2018-08-11T03:16:45.195Z,1.72
2018-08-11T03:19:13.552Z,1.70
2018-08-11T03:21:41.909Z,1.70
2018-08-11T03:24:10.415Z,1.98
2018-08-11T03:26:38.900Z,2.10
2018-08-11T03:29:07.257Z,2.05
2018-08-11T03:31:35.835Z,1.57
2018-08-11T03:34:04.053Z,1.90
2018-08-11T03:36:32.362Z,1.65
2018-08-11T03:39:00.661Z,2.05
2018-08-11T03:41:29.031Z,2.20
2018-08-11T03:43:57.264Z,2.27
2018-08-11T03:46:25.464Z,1.75
2018-08-11T03:48:53.798Z,1.65
2018-08-11T03:51:22.123Z,2.20
2018-08-11T03:53:50.275Z,1.90
2018-08-11T03:56:18.521Z,2.20
2018-08-11T03:58:46.759Z,2.05
2018-08-11T04:01:14.976Z,2.00
2018-08-11T04:03:43.831Z,2.05
2018-08-11T04:06:12.511Z,2.20
2018-08-11T04:08:41.188Z,2.05
2018-08-11T04:11:09.294Z,2.45
2018-08-11T04:13:37.688Z,2.22
2018-08-11T04:16:06.334Z,2.47
2018-08-11T04:18:34.736Z,2.42
2018-08-11T04:21:03.010Z,2.60
2018-08-11T04:23:32.059Z,2.47
2018-08-11T04:26:00.532Z,2.50
2018-08-11T04:28:29.010Z,2.70
2018-08-11T04:30:57.170Z,2.98
2018-08-11T04:33:25.567Z,2.40
2018-08-11T04:35:54.141Z,2.47
2018-08-11T04:38:22.285Z,2.10
2018-08-11T04:40:50.803Z,1.90
2018-08-11T04:43:19.130Z,1.92
2018-08-11T04:45:47.233Z,2.02
2018-08-11T04:48:15.954Z,1.60
2018-08-11T04:50:44.239Z,2.00
2018-08-11T04:53:12.784Z,1.62
2018-08-11T04:55:41.018Z,2.12
2018-08-11T04:58:09.427Z,1.90
2018-08-11T05:00:37.632Z,2.08
2018-08-11T05:03:06.066Z,2.05
2018-08-11T05:05:34.250Z,1.90
2018-08-11T05:08:02.370Z,1.50
2018-08-11T05:10:30.607Z,1.70
2018-08-11T05:12:59.571Z,1.80
2018-08-11T05:15:27.671Z,2.70
2018-08-11T05:17:56.146Z,2.00
2018-08-11T05:20:25.536Z,1.75
2018-08-11T05:22:53.923Z,2.08
2018-08-11T05:25:22.172Z,1.65
2018-08-11T05:27:50.662Z,1.80
2018-08-11T05:30:19.051Z,1.90
2018-08-11T05:32:47.292Z,1.52
2018-08-11T05:35:15.653Z,1.70
2018-08-11T05:37:43.956Z,1.47
2018-08-11T05:40:12.320Z,1.60
2018-08-11T05:42:40.531Z,1.85
2018-08-11T05:45:10.033Z,1.67
2018-08-11T05:47:38.244Z,1.57
2018-08-11T05:50:06.413Z,1.62
2018-08-11T05:52:34.728Z,1.42
2018-08-11T05:55:03.159Z,1.50
2018-08-11T05:57:31.477Z,1.98
2018-08-11T05:59:59.692Z,1.60
2018-08-11T06:02:28.250Z,2.15
2018-08-11T06:04:56.585Z,1.32
2018-08-11T06:07:25.942Z,1.60
2018-08-11T06:09:54.866Z,1.60
2018-08-11T06:12:23.222Z,1.37
2018-08-11T06:14:51.722Z,1.20
2018-08-11T06:17:19.888Z,1.35
2018-08-11T06:19:48.454Z,1.55
2018-08-11T06:22:16.819Z,1.40
2018-08-11T06:24:44.927Z,2.02
2018-08-11T06:27:13.567Z,1.42
2018-08-11T06:29:42.106Z,1.60
2018-08-11T06:32:10.688Z,1.65
2018-08-11T06:34:38.789Z,1.60
2018-08-11T06:37:07.416Z,1.30
2018-08-11T06:39:35.939Z,1.62
2018-08-11T06:42:04.248Z,1.50
2018-08-11T06:44:32.441Z,1.40
2018-08-11T06:47:00.674Z,1.70
2018-08-11T06:49:29.048Z,1.32
2018-08-11T06:51:57.508Z,1.60
2018-08-11T06:54:25.774Z,1.70
2018-08-11T06:56:54.082Z,1.67
2018-08-11T06:59:22.540Z,1.40
2018-08-11T07:01:50.679Z,1.65
2018-08-11T07:04:18.795Z,1.85
2018-08-11T07:06:47.132Z,1.70
2018-08-11T07:09:15.317Z,1.60
2018-08-11T07:11:43.494Z,1.80
2018-08-11T07:14:11.915Z,1.72
2018-08-11T07:16:40.341Z,1.80
2018-08-11T07:19:08.756Z,2.00
2018-08-11T07:21:37.066Z,2.00
2018-08-11T07:24:05.311Z,1.65
2018-08-11T07:26:33.520Z,2.02
2018-08-11T07:29:04.387Z,1.65
2018-08-11T07:31:32.851Z,2.00
2018-08-11T07:34:01.265Z,1.60
2018-08-11T07:36:29.992Z,1.52
2018-08-11T07:38:58.222Z,1.80
2018-08-11T07:41:26.444Z,2.27
2018-08-11T07:43:54.592Z,2.00
2018-08-11T07:46:23.032Z,1.60
2018-08-11T07:48:51.830Z,1.70
2018-08-11T07:54:15.905Z,2.20
2018-08-11T07:56:44.026Z,1.60
2018-08-11T07:59:12.644Z,1.85
2018-08-11T08:01:40.916Z,1.75
2018-08-11T08:04:09.159Z,1.50
2018-08-11T08:06:37.276Z,1.90
2018-08-11T08:09:08.440Z,1.92
2018-08-11T08:11:36.578Z,1.80
2018-08-11T08:14:05.166Z,1.57
2018-08-11T08:16:33.445Z,1.70
2018-08-11T08:19:01.649Z,1.62
2018-08-11T08:21:29.758Z,1.52
2018-08-11T08:23:57.858Z,2.02
2018-08-11T08:26:26.260Z,1.70
2018-08-11T08:28:54.324Z,2.17
2018-08-11T08:31:22.888Z,1.77
2018-08-11T08:33:51.119Z,1.82
2018-08-11T08:36:19.815Z,1.20
2018-08-11T08:38:47.958Z,1.42
2018-08-11T08:41:16.571Z,1.47
2018-08-11T08:43:44.720Z,1.60
2018-08-11T08:46:12.894Z,1.42
2018-08-11T08:48:41.120Z,1.42
2018-08-11T08:51:09.689Z,1.30
2018-08-11T08:53:38.039Z,1.27
2018-08-11T08:56:06.664Z,1.40
2018-08-11T08:58:34.951Z,1.60
2018-08-11T09:01:03.065Z,1.52
2018-08-11T09:03:31.754Z,1.50
2018-08-11T09:06:00.033Z,1.50
2018-08-11T09:08:28.262Z,1.55
2018-08-11T09:10:56.740Z,1.32
2018-08-11T09:13:47.287Z,1.87
2018-08-11T09:16:15.458Z,1.40
2018-08-11T09:18:43.892Z,1.60
2018-08-11T09:21:12.116Z,1.20
2018-08-11T09:23:40.448Z,1.60
2018-08-11T09:26:08.664Z,1.45
2018-08-11T09:28:37.058Z,1.40
2018-08-11T09:31:05.637Z,1.55
2018-08-11T09:33:34.302Z,1.70
2018-08-11T09:36:02.535Z,1.27
2018-08-11T09:38:31.135Z,1.60
2018-08-11T09:40:59.409Z,1.65
2018-08-11T09:43:27.929Z,1.80
2018-08-11T09:45:56.344Z,1.90
2018-08-11T09:48:24.527Z,2.50
2018-08-11T09:50:53.329Z,1.80
2018-08-11T09:53:21.842Z,2.00
2018-08-11T09:55:50.187Z,1.75
2018-08-11T09:58:18.653Z,1.75
2018-08-11T10:00:49.251Z,1.65
2018-08-11T10:03:17.723Z,1.60
2018-08-11T10:05:46.022Z,1.40
2018-08-11T10:08:14.195Z,1.50
2018-08-11T10:10:43.475Z,1.22
2018-08-11T10:13:11.888Z,2.33
2018-08-11T10:15:40.060Z,1.60
2018-08-11T10:18:08.591Z,1.67
2018-08-11T10:20:36.867Z,1.92
2018-08-11T10:23:05.542Z,1.45
2018-08-11T10:25:33.670Z,1.20
2018-08-11T10:28:01.993Z,1.30
2018-08-11T10:30:30.444Z,1.40
2018-08-11T10:32:58.875Z,1.87
2018-08-11T10:35:27.669Z,1.30
2018-08-11T10:37:55.918Z,1.25
2018-08-11T10:40:24.136Z,1.35
2018-08-11T10:42:52.449Z,1.30
2018-08-11T10:45:21.920Z,1.30
2018-08-11T10:47:50.467Z,1.47
2018-08-11T10:50:18.995Z,1.22
2018-08-11T10:52:47.345Z,1.30
2018-08-11T10:55:52.765Z,1.22
2018-08-11T10:58:22.048Z,1.82
2018-08-11T11:01:26.811Z,1.62
2018-08-11T11:03:55.318Z,1.35
2018-08-11T11:06:23.675Z,1.20
2018-08-11T11:11:10.807Z,1.52
2018-08-11T11:13:59.929Z,1.90
2018-08-11T11:16:28.199Z,1.77
2018-08-11T11:18:56.537Z,1.60
2018-08-11T11:21:24.902Z,1.57
2018-08-11T11:23:53.335Z,1.98
2018-08-11T11:26:21.589Z,1.30
2018-08-11T11:28:49.784Z,1.70
2018-08-11T11:31:18.225Z,1.30
2018-08-11T11:34:16.971Z,1.55
2018-08-11T11:36:45.153Z,1.57
2018-08-11T11:39:13.272Z,1.30
2018-08-11T11:41:41.536Z,1.30
2018-08-11T11:44:09.687Z,1.20
2018-08-11T11:46:37.796Z,1.32
2018-08-11T11:49:06.123Z,1.17
2018-08-11T11:51:34.359Z,0.95
2018-08-11T11:54:02.824Z,1.42
2018-08-11T12:02:09.446Z,1.10
2018-08-11T12:04:37.571Z,1.12
2018-08-11T12:07:06.160Z,1.25
2018-08-11T12:09:34.304Z,1.05
2018-08-11T12:12:02.427Z,1.17
2018-08-11T12:14:30.608Z,1.30
2018-08-11T12:16:58.810Z,1.47
2018-08-11T12:19:27.077Z,1.15
2018-08-11T12:21:55.235Z,0.95
2018-08-11T12:24:23.322Z,1.27
2018-08-11T12:26:51.470Z,1.47
2018-08-11T12:29:19.673Z,1.35
2018-08-11T12:31:47.840Z,1.52
2018-08-11T12:34:15.958Z,1.20
2018-08-11T12:36:44.299Z,1.30
2018-08-11T12:39:12.490Z,1.30
2018-08-11T12:41:41.306Z,1.17
2018-08-11T12:44:09.859Z,1.10
2018-08-11T12:46:37.955Z,1.50
2018-08-11T12:49:06.126Z,1.25
2018-08-11T12:51:34.228Z,1.42
2018-08-11T12:54:02.365Z,1.00
2018-08-11T12:56:30.550Z,1.10
2018-08-11T12:58:58.968Z,1.20
2018-08-11T13:01:27.198Z,1.35
2018-08-11T13:03:55.335Z,1.60
2018-08-11T13:06:23.816Z,1.27
2018-08-11T13:08:52.098Z,1.45
2018-08-11T13:11:20.261Z,1.40
2018-08-11T13:13:48.374Z,1.55
2018-08-11T13:16:16.522Z,1.10
2018-08-11T13:18:44.894Z,1.77
2018-08-11T13:21:13.039Z,1.40
2018-08-11T13:23:41.506Z,1.98
2018-08-11T13:26:10.013Z,1.47
2018-08-11T13:28:38.150Z,1.20
2018-08-11T13:31:06.791Z,1.32
2018-08-11T13:33:35.077Z,1.30
2018-08-11T13:36:03.208Z,1.57
2018-08-11T13:38:31.481Z,1.47
2018-08-11T13:40:59.634Z,1.40
2018-08-11T13:43:28.108Z,1.45
2018-08-11T13:45:56.384Z,1.42
2018-08-11T13:48:24.560Z,1.30
2018-08-11T13:50:52.758Z,1.20
2018-08-11T13:53:26.675Z,1.30
2018-08-11T13:55:54.951Z,1.50
2018-08-11T13:58:23.327Z,1.40
2018-08-11T14:00:52.191Z,1.20
2018-08-11T14:03:20.485Z,1.17
2018-08-11T14:05:48.622Z,1.27
2018-08-11T14:08:17.128Z,1.15
2018-08-11T14:10:45.497Z,1.30
2018-08-11T14:13:13.800Z,1.55
2018-08-11T14:15:42.931Z,1.62
2018-08-11T14:18:11.036Z,1.70
2018-08-11T14:20:39.332Z,1.50
2018-08-11T14:23:07.481Z,1.75
2018-08-11T14:25:35.665Z,1.45
2018-08-11T14:28:03.899Z,1.40
2018-08-11T14:30:32.032Z,1.50
2018-08-11T14:33:00.260Z,1.40
2018-08-11T14:35:28.501Z,1.80
2018-08-11T14:37:56.612Z,1.52
2018-08-11T14:40:24.831Z,1.22
2018-08-11T14:42:52.916Z,1.60
2018-08-11T14:45:21.838Z,1.50
2018-08-11T14:47:50.059Z,1.95
2018-08-11T14:50:18.135Z,1.37
2018-08-11T14:52:46.401Z,1.37
2018-08-11T14:55:14.698Z,1.37
2018-08-11T14:57:42.900Z,25.48
2018-08-11T15:00:13.006Z,17.45
2018-08-11T15:02:41.554Z,10.18
2018-08-11T15:05:10.332Z,9.15
2018-08-11T15:07:38.560Z,4.53
2018-08-11T15:10:07.530Z,3.17
2018-08-11T15:12:36.588Z,8.63
2018-08-11T15:15:05.782Z,6.20
2018-08-11T15:17:34.256Z,25.52
2018-08-11T15:20:02.353Z,4.50
2018-08-11T15:22:30.601Z,3.05
2018-08-11T15:24:58.675Z,4.25
2018-08-11T15:27:27.172Z,2.72
2018-08-11T15:29:55.344Z,2.25
2018-08-11T15:32:23.470Z,1.50
2018-08-11T15:34:51.674Z,1.67
2018-08-11T15:37:19.786Z,1.62
2018-08-11T15:39:47.891Z,1.55
2018-08-11T15:42:16.087Z,1.75
2018-08-11T15:44:44.230Z,1.60
2018-08-11T15:47:12.502Z,1.50
2018-08-11T15:49:40.931Z,1.67
2018-08-11T15:52:09.086Z,1.72
2018-08-11T15:54:37.435Z,2.02
2018-08-11T15:57:05.552Z,1.95
2018-08-11T15:59:33.726Z,2.02
2018-08-11T16:02:01.959Z,1.98
2018-08-11T16:04:30.123Z,1.62
2018-08-11T16:06:58.272Z,1.70
2018-08-11T16:09:26.424Z,1.75
2018-08-11T16:11:54.821Z,1.70
2018-08-11T16:14:22.934Z,1.45
2018-08-11T16:16:51.184Z,1.87
2018-08-11T16:19:19.469Z,1.80
2018-08-11T16:21:47.578Z,1.72
2018-08-11T16:24:15.890Z,1.70
2018-08-11T16:26:43.999Z,1.70
2018-08-11T16:29:12.182Z,1.55
2018-08-11T16:31:40.271Z,2.20
2018-08-11T16:34:08.393Z,1.87
2018-08-11T16:36:36.809Z,2.00
2018-08-11T16:39:08.850Z,2.12
2018-08-11T16:41:38.093Z,2.20
2018-08-11T16:44:06.229Z,1.87
2018-08-11T16:46:34.557Z,1.50
2018-08-11T16:49:02.818Z,1.60
2018-08-11T16:51:31.062Z,1.98
2018-08-11T16:54:00.042Z,1.85
2018-08-11T16:56:28.502Z,1.52
2018-08-11T16:58:56.714Z,1.47
2018-08-11T17:01:25.032Z,1.70
2018-08-11T17:03:53.239Z,1.65
2018-08-11T17:06:21.380Z,1.40
2018-08-11T17:08:49.610Z,1.77
2018-08-11T17:11:17.793Z,1.50
2018-08-11T17:13:45.929Z,1.35
2018-08-11T17:16:14.074Z,1.32
2018-08-11T17:18:42.207Z,1.60
2018-08-11T17:21:10.331Z,1.67
2018-08-11T17:23:38.438Z,1.70
2018-08-11T17:26:06.648Z,1.40
2018-08-11T17:28:34.916Z,1.80
2018-08-11T17:31:03.420Z,1.80
2018-08-11T17:33:32.037Z,1.80
2018-08-11T17:36:00.297Z,1.70
2018-08-11T17:38:28.713Z,2.00
2018-08-11T17:40:56.830Z,2.00
2018-08-11T17:43:25.079Z,1.95
2018-08-11T17:45:53.261Z,2.47
2018-08-11T17:48:21.438Z,1.67
2018-08-11T17:50:49.712Z,1.70
2018-08-11T17:53:18.887Z,1.72
2018-08-11T17:55:47.456Z,1.60
2018-08-11T17:58:15.666Z,1.98
2018-08-11T18:00:44.095Z,1.72
2018-08-11T18:03:12.183Z,1.50
2018-08-11T18:05:40.439Z,2.83
2018-08-11T18:08:08.655Z,1.85
2018-08-11T18:10:36.821Z,1.90
2018-08-11T18:13:05.278Z,2.10
2018-08-11T18:15:33.607Z,1.72
2018-08-11T18:18:01.728Z,1.50
2018-08-11T18:20:30.283Z,2.10
2018-08-11T18:22:58.407Z,1.92
2018-08-11T18:25:26.609Z,1.82
2018-08-11T18:27:54.947Z,1.90
2018-08-11T18:30:23.311Z,2.08
2018-08-11T18:32:52.931Z,1.70
2018-08-11T18:35:21.045Z,1.57
2018-08-11T18:37:49.258Z,2.20
2018-08-11T18:40:17.478Z,1.50
2018-08-11T18:42:45.587Z,1.90
2018-08-11T18:45:13.838Z,2.05
2018-08-11T18:47:42.000Z,2.00
2018-08-11T18:50:10.168Z,1.85
2018-08-11T18:52:38.435Z,2.33
2018-08-11T18:55:08.111Z,1.90
2018-08-11T18:57:36.466Z,2.58
2018-08-11T19:00:09.739Z,2.33
2018-08-11T19:02:38.682Z,1.90
2018-08-11T19:05:06.960Z,2.30
2018-08-11T19:07:35.089Z,2.50
2018-08-11T19:10:03.238Z,2.72
2018-08-11T19:12:31.586Z,3.60
2018-08-11T19:14:59.687Z,4.28
2018-08-11T19:17:27.903Z,3.60
2018-08-11T19:19:56.075Z,3.45
2018-08-11T19:22:24.131Z,3.05
2018-08-11T19:24:52.315Z,2.95
2018-08-11T19:27:20.415Z,3.20
2018-08-11T19:29:48.535Z,3.60
2018-08-11T19:32:16.836Z,3.00
2018-08-11T19:34:44.935Z,2.90
2018-08-11T19:37:13.255Z,2.58
2018-08-11T19:39:41.419Z,2.83
2018-08-11T19:42:09.532Z,3.22
2018-08-11T19:44:37.817Z,2.60
2018-08-11T19:47:06.380Z,2.55
2018-08-11T19:49:34.587Z,2.22
2018-08-11T19:52:02.735Z,2.17
2018-08-11T19:54:30.849Z,2.27
2018-08-11T19:56:59.280Z,3.67
2018-08-11T19:59:27.450Z,3.50
2018-08-11T20:01:55.758Z,4.17
2018-08-11T20:04:23.955Z,3.87
2018-08-11T20:06:52.123Z,5.30
2018-08-11T20:09:20.281Z,5.83
2018-08-11T20:11:48.379Z,4.65
2018-08-11T20:14:17.006Z,4.80
2018-08-11T20:16:45.267Z,4.50
2018-08-11T20:19:13.499Z,3.60
2018-08-11T20:21:41.598Z,3.80
2018-08-11T20:24:09.702Z,3.67
2018-08-11T20:26:37.943Z,3.87
2018-08-11T20:29:06.136Z,4.20
2018-08-11T20:31:34.234Z,3.55
2018-08-11T20:34:02.331Z,3.42
2018-08-11T20:36:30.459Z,3.15
2018-08-11T20:38:58.912Z,3.22
2018-08-11T20:41:27.015Z,3.40
2018-08-11T20:43:55.186Z,3.05
2018-08-11T20:46:23.348Z,3.85
2018-08-11T20:48:51.517Z,3.20
2018-08-11T20:51:19.678Z,3.47
2018-08-11T20:53:47.851Z,3.50
2018-08-11T20:56:16.059Z,3.47
2018-08-11T20:58:44.206Z,3.45
2018-08-11T21:01:12.461Z,3.87
2018-08-11T21:03:40.717Z,3.45
2018-08-11T21:06:08.883Z,3.33
2018-08-11T21:08:37.009Z,4.05
2018-08-11T21:11:05.439Z,3.25
2018-08-11T21:13:33.579Z,3.40
2018-08-11T21:16:02.229Z,4.25
2018-08-11T21:18:30.333Z,4.10
2018-08-11T21:20:58.815Z,4.83
2018-08-11T21:23:27.364Z,4.97
2018-08-11T21:25:55.778Z,4.87
2018-08-11T21:28:23.939Z,5.40
2018-08-11T21:30:52.133Z,5.53
2018-08-11T21:33:20.396Z,5.10
2018-08-11T21:35:48.538Z,5.25
2018-08-11T21:38:17.136Z,4.67
2018-08-11T21:40:45.310Z,5.55
2018-08-11T21:43:13.420Z,4.85
2018-08-11T21:45:44.255Z,7.17
2018-08-11T21:48:12.358Z,7.08
2018-08-11T21:50:40.663Z,7.30
2018-08-11T21:53:08.836Z,6.37
2018-08-11T21:55:36.983Z,7.10
2018-08-11T21:58:05.800Z,7.35
2018-08-11T22:00:35.232Z,6.45
2018-08-11T22:03:03.707Z,6.15
2018-08-11T22:05:31.840Z,6.20
2018-08-11T22:08:01.207Z,6.00
2018-08-11T22:10:29.563Z,5.97
2018-08-11T22:12:57.828Z,6.00
2018-08-11T22:15:25.954Z,5.75
2018-08-11T22:17:54.139Z,5.85
2018-08-11T22:20:22.415Z,5.62
2018-08-11T22:22:50.532Z,7.42
2018-08-11T22:25:18.929Z,6.37
2018-08-11T22:27:47.171Z,5.95
2018-08-11T22:30:15.277Z,6.20
2018-08-11T22:32:43.496Z,6.35
2018-08-11T22:35:12.495Z,7.55
2018-08-11T22:37:40.671Z,15.25
2018-08-11T22:40:09.003Z,21.48
2018-08-11T22:42:38.054Z,17.48
2018-08-11T22:45:08.663Z,13.75
2018-08-11T22:47:37.014Z,15.00
2018-08-11T22:50:07.071Z,11.65
2018-08-11T22:52:35.206Z,8.30
2018-08-11T22:55:03.507Z,6.85
2018-08-11T22:57:31.631Z,8.45
2018-08-11T23:00:00.077Z,7.30
2018-08-11T23:02:28.294Z,6.58
2018-08-11T23:04:56.435Z,6.87
2018-08-11T23:07:24.540Z,6.55
2018-08-11T23:09:52.662Z,5.67
2018-08-11T23:12:20.750Z,4.67
2018-08-11T23:14:48.927Z,4.42
2018-08-11T23:17:17.023Z,4.60
2018-08-11T23:19:45.285Z,4.08
2018-08-11T23:22:13.648Z,4.65
2018-08-11T23:24:41.858Z,5.75
2018-08-11T23:27:10.000Z,5.30
2018-08-11T23:29:38.127Z,5.50
2018-08-11T23:32:06.370Z,4.12
2018-08-11T23:34:34.506Z,4.62
2018-08-11T23:37:02.766Z,4.53
2018-08-11T23:39:30.897Z,4.30
2018-08-11T23:41:59.079Z,4.17
2018-08-11T23:44:27.202Z,3.50
2018-08-11T23:46:55.358Z,3.42
2018-08-11T23:49:23.787Z,3.22
2018-08-11T23:51:51.898Z,3.62
2018-08-11T23:54:20.147Z,3.30
2018-08-11T23:56:48.239Z,3.40
2018-08-11T23:59:16.404Z,2.83
